Time;durP1;ratioP1;P1;durP2;ratioP2;P2;SDS_P1;SDS_P2;PMS_P1;PMS_P2;Temp;Humidity;BMP_temperature;BMP_pressure;BME280_temperature;BME280_humidity;BME280_pressure;Samples;Min_cycle;Max_cycle;Signal;HPM_P1;HPM_P2
2022/11/04 00:00:54;;;;;;;11.40;4.27;;;13.50;85.60;;;;;;5016257;28;20234;-92
2022/11/04 00:03:21;;;;;;;12.30;3.67;;;13.50;85.40;;;;;;5015191;28;20337;-92
2022/11/04 00:05:50;;;;;;;13.47;4.67;;;13.50;85.20;;;;;;5014400;28;20208;-92
2022/11/04 00:08:26;;;;;;;17.93;5.23;;;13.50;85.20;;;;;;5013993;28;20671;-90
2022/11/04 00:13:39;;;;;;;11.43;4.07;;;13.50;85.00;;;;;;5014337;28;20214;-93
2022/11/04 00:18:54;;;;;;;9.10;3.47;;;13.60;85.10;;;;;;5012525;28;20207;-93
2022/11/04 00:29:42;;;;;;;10.37;3.70;;;13.60;84.90;;;;;;5013407;28;20212;-94
2022/11/04 00:34:58;;;;;;;11.03;3.80;;;13.60;84.80;;;;;;5016035;28;20264;-92
2022/11/04 00:37:35;;;;;;;12.63;4.30;;;13.60;84.70;;;;;;5016595;28;20296;-93
2022/11/04 00:40:05;;;;;;;12.03;4.03;;;13.50;84.80;;;;;;5029531;28;20206;-92
2022/11/04 00:42:38;;;;;;;14.17;4.43;;;13.60;84.30;;;;;;5016989;28;20283;-93
2022/11/04 00:45:11;;;;;;;10.10;4.00;;;13.50;84.50;;;;;;5018327;28;20743;-94
2022/11/04 00:47:41;;;;;;;10.93;3.53;;;13.50;84.50;;;;;;5015196;28;20640;-93
2022/11/04 00:50:11;;;;;;;13.00;3.67;;;13.50;84.70;;;;;;5011179;28;20654;-93
2022/11/04 00:52:41;;;;;;;11.23;3.77;;;13.50;84.70;;;;;;5018692;28;20285;-96
2022/11/04 00:55:13;;;;;;;10.37;3.90;;;13.50;84.80;;;;;;5018549;28;20231;-93
2022/11/04 00:57:42;;;;;;;9.70;3.37;;;13.50;84.70;;;;;;5018438;28;20198;-94
2022/11/04 01:00:15;;;;;;;8.87;3.30;;;13.50;84.80;;;;;;5017480;28;20236;-96
2022/11/04 01:02:47;;;;;;;15.47;3.40;;;13.50;84.80;;;;;;5019053;28;20233;-92
2022/11/04 01:05:17;;;;;;;8.73;3.70;;;13.50;84.50;;;;;;5016815;28;20240;-94
2022/11/04 01:07:59;;;;;;;6.73;2.80;;;13.50;84.60;;;;;;5015882;28;20201;-95
2022/11/04 01:10:29;;;;;;;11.37;3.53;;;13.40;84.90;;;;;;5019643;28;20236;-93
2022/11/04 01:13:01;;;;;;;7.63;3.03;;;13.40;84.50;;;;;;5003623;28;20203;-94
2022/11/04 01:15:31;;;;;;;10.50;3.43;;;13.50;84.70;;;;;;5014042;28;20200;-94
2022/11/04 01:18:01;;;;;;;8.00;3.23;;;13.50;84.30;;;;;;5016395;28;20240;-94
2022/11/04 01:20:29;;;;;;;7.83;3.20;;;13.40;84.20;;;;;;5016154;28;20265;-91
2022/11/04 01:23:00;;;;;;;9.73;3.53;;;13.40;84.20;;;;;;5017283;28;20234;-90
2022/11/04 01:25:29;;;;;;;10.83;3.60;;;13.40;84.30;;;;;;5014378;28;20672;-91
2022/11/04 01:28:02;;;;;;;20.20;4.90;;;13.40;84.40;;;;;;5014222;28;20250;-93
2022/11/04 01:30:30;;;;;;;12.20;4.10;;;13.40;85.10;;;;;;5013333;28;20760;-92
2022/11/04 01:33:01;;;;;;;18.87;5.03;;;13.40;84.90;;;;;;5014197;28;20205;-92
2022/11/04 01:35:31;;;;;;;15.37;4.70;;;13.40;85.40;;;;;;5015952;28;20295;-92
2022/11/04 01:38:00;;;;;;;7.03;3.33;;;13.40;85.90;;;;;;5023253;28;20211;-93
2022/11/04 01:40:27;;;;;;;13.10;4.27;;;13.40;86.00;;;;;;5017195;28;20204;-94
2022/11/04 01:43:04;;;;;;;13.97;4.50;;;13.40;85.90;;;;;;5015603;28;20231;-93
2022/11/04 01:45:33;;;;;;;14.43;4.10;;;13.40;86.00;;;;;;5014994;28;20221;-94
2022/11/04 01:48:04;;;;;;;11.23;3.70;;;13.40;86.00;;;;;;5015536;28;20318;-93
2022/11/04 01:50:37;;;;;;;12.13;4.20;;;13.40;86.10;;;;;;5014210;28;20686;-94
2022/11/04 01:53:16;;;;;;;13.90;4.87;;;13.40;86.10;;;;;;5006058;28;20239;-94
2022/11/04 01:55:51;;;;;;;9.90;3.77;;;13.40;86.90;;;;;;5005354;28;20238;-92
2022/11/04 01:58:23;;;;;;;9.33;3.70;;;13.40;86.70;;;;;;5016983;28;20230;-92
2022/11/04 02:00:52;;;;;;;8.07;3.37;;;13.40;86.50;;;;;;5016043;28;20205;-93
2022/11/04 02:03:32;;;;;;;11.77;3.87;;;13.50;86.40;;;;;;5015929;28;20349;-93
2022/11/04 02:06:01;;;;;;;11.20;4.10;;;13.50;87.00;;;;;;5012250;28;20213;-94
2022/11/04 02:08:32;;;;;;;11.83;4.13;;;13.40;86.50;;;;;;5015053;28;20218;-94
2022/11/04 02:11:03;;;;;;;9.07;3.37;;;13.50;86.30;;;;;;5012463;28;20216;-95
2022/11/04 02:13:33;;;;;;;14.83;4.73;;;13.40;86.50;;;;;;5010043;28;20249;-94
2022/11/04 02:16:11;;;;;;;13.10;4.37;;;13.50;86.90;;;;;;5014731;28;20204;-94
2022/11/04 02:18:57;;;;;;;11.13;4.13;;;13.50;87.10;;;;;;5013794;28;20200;-92
2022/11/04 02:22:14;;;;;;;11.67;4.27;;;13.50;87.20;;;;;;4999593;28;20216;-92
2022/11/04 02:25:04;;;;;;;9.13;3.40;;;13.50;87.10;;;;;;4951209;29;20206;-94
2022/11/04 02:27:47;;;;;;;10.50;3.93;;;13.60;86.90;;;;;;4938321;29;20769;-91
2022/11/04 02:30:18;;;;;;;12.67;4.50;;;13.50;86.80;;;;;;5007202;28;20233;-93
2022/11/04 02:33:17;;;;;;;7.47;3.10;;;13.50;87.20;;;;;;5023108;28;20201;-93
2022/11/04 02:35:52;;;;;;;7.57;3.27;;;13.50;86.80;;;;;;5012814;28;20274;-94
2022/11/04 02:38:30;;;;;;;12.77;4.47;;;13.50;86.40;;;;;;5014310;28;20209;-92
2022/11/04 02:41:07;;;;;;;7.23;3.17;;;13.60;86.50;;;;;;5023300;28;20924;-95
2022/11/04 02:44:00;;;;;;;13.83;4.83;;;13.60;86.60;;;;;;5013438;28;20452;-93
2022/11/04 02:46:36;;;;;;;9.33;3.77;;;13.60;86.70;;;;;;5015380;28;20202;-94
2022/11/04 02:49:09;;;;;;;11.40;3.87;;;13.60;86.60;;;;;;5001660;28;20234;-93
2022/11/04 02:51:43;;;;;;;10.93;4.00;;;13.60;86.60;;;;;;5012563;28;20203;-92
2022/11/04 02:54:15;;;;;;;18.57;5.53;;;13.60;86.80;;;;;;5010523;28;20330;-93
2022/11/04 02:56:48;;;;;;;9.67;3.60;;;13.60;86.80;;;;;;5009093;28;20218;-94
2022/11/04 02:59:24;;;;;;;8.40;2.97;;;13.60;87.10;;;;;;5016255;28;20686;-93
2022/11/04 03:01:56;;;;;;;8.13;3.30;;;13.60;87.30;;;;;;5014903;28;20209;-92
2022/11/04 03:04:29;;;;;;;12.63;3.30;;;13.60;87.10;;;;;;5015044;28;20234;-94
2022/11/04 03:07:00;;;;;;;11.43;3.93;;;13.60;86.80;;;;;;5015284;28;20293;-94
2022/11/04 03:09:29;;;;;;;18.40;5.50;;;13.60;86.70;;;;;;5013832;28;20194;-93
2022/11/04 03:12:03;;;;;;;10.93;3.37;;;13.60;86.30;;;;;;5012951;28;20345;-95
2022/11/04 03:14:38;;;;;;;18.23;5.07;;;13.60;86.20;;;;;;5012370;28;20247;-93
2022/11/04 03:17:13;;;;;;;10.40;3.47;;;13.60;86.30;;;;;;4999866;28;20193;-94
2022/11/04 03:19:53;;;;;;;13.10;3.77;;;13.60;86.20;;;;;;5013015;28;20205;-94
2022/11/04 03:22:25;;;;;;;17.73;5.37;;;13.60;86.50;;;;;;5011254;28;20197;-92
2022/11/04 03:24:55;;;;;;;10.60;3.73;;;13.60;86.40;;;;;;5006900;28;20232;-93
2022/11/04 03:27:29;;;;;;;16.53;5.07;;;13.60;86.50;;;;;;5026688;28;20270;-93
2022/11/04 03:30:02;;;;;;;8.40;2.90;;;13.60;86.50;;;;;;5021270;28;20201;-94
2022/11/04 03:32:41;;;;;;;17.97;5.63;;;13.60;86.90;;;;;;5006262;28;20210;-94
2022/11/04 03:35:11;;;;;;;10.00;3.60;;;13.60;87.30;;;;;;5013211;28;20240;-95
2022/11/04 03:37:41;;;;;;;16.03;5.37;;;13.60;87.00;;;;;;5013202;28;20212;-93
2022/11/04 03:40:12;;;;;;;8.10;3.40;;;13.60;87.00;;;;;;5013646;28;20210;-93
2022/11/04 03:42:46;;;;;;;16.10;5.60;;;13.60;87.30;;;;;;5014160;28;20227;-93
2022/11/04 03:45:17;;;;;;;11.03;4.10;;;13.60;87.80;;;;;;5001546;28;20304;-94
2022/11/04 03:47:48;;;;;;;16.33;4.93;;;13.60;88.00;;;;;;5015638;28;20206;-93
2022/11/04 03:50:29;;;;;;;12.00;4.00;;;13.60;87.60;;;;;;5011811;28;20201;-94
2022/11/04 03:52:58;;;;;;;19.20;6.30;;;13.60;87.70;;;;;;5015502;28;20222;-93
2022/11/04 03:55:42;;;;;;;14.47;4.50;;;13.60;87.30;;;;;;5010813;28;20217;-93
2022/11/04 03:58:21;;;;;;;11.60;4.30;;;13.60;88.00;;;;;;4993701;28;20485;-93
2022/11/04 04:01:03;;;;;;;10.07;3.83;;;13.60;87.80;;;;;;4999140;28;20233;-93
2022/11/04 04:03:37;;;;;;;18.90;5.63;;;13.70;87.90;;;;;;5011853;28;20233;-94
2022/11/04 04:06:10;;;;;;;16.87;5.33;;;13.60;87.70;;;;;;5008455;28;20298;-93
2022/11/04 04:08:45;;;;;;;11.23;4.10;;;13.60;87.80;;;;;;5011928;28;20290;-93
2022/11/04 04:11:20;;;;;;;20.60;5.97;;;13.60;87.60;;;;;;5011723;28;20690;-93
2022/11/04 04:13:54;;;;;;;16.83;5.10;;;13.60;87.40;;;;;;5009877;28;20299;-94
2022/11/04 04:16:28;;;;;;;19.23;6.03;;;13.60;87.40;;;;;;5010468;28;20291;-92
2022/11/04 04:19:03;;;;;;;10.83;3.67;;;13.70;87.60;;;;;;5012129;28;20576;-93
2022/11/04 04:21:37;;;;;;;14.77;4.47;;;13.70;88.10;;;;;;5024314;28;20224;-93
2022/11/04 04:29:44;;;;;;;14.00;4.10;;;13.70;87.30;;;;;;5016643;28;20210;-93
2022/11/04 04:32:12;;;;;;;13.43;4.33;;;13.70;87.40;;;;;;5015294;28;20226;-95
2022/11/04 04:34:42;;;;;;;12.40;4.27;;;13.70;87.50;;;;;;5015518;28;20239;-94
2022/11/04 04:37:16;;;;;;;14.50;5.07;;;13.70;87.60;;;;;;5015240;28;20201;-93
2022/11/04 04:48:11;;;;;;;12.63;4.50;;;13.70;88.10;;;;;;5009361;28;20315;-93
2022/11/04 04:50:47;;;;;;;15.57;5.13;;;13.70;87.90;;;;;;5016137;28;20214;-93
2022/11/04 04:53:16;;;;;;;14.40;4.57;;;13.70;87.80;;;;;;5017029;28;20271;-92
2022/11/04 04:55:43;;;;;;;11.00;3.80;;;13.70;87.60;;;;;;5011479;28;20213;-93
2022/11/04 04:58:14;;;;;;;13.93;4.37;;;13.70;87.60;;;;;;5014685;28;20216;-94
2022/11/04 05:00:44;;;;;;;10.07;3.70;;;13.70;87.70;;;;;;5016762;28;20199;-92
2022/11/04 05:03:11;;;;;;;10.97;3.47;;;13.70;87.90;;;;;;5014059;28;20256;-90
2022/11/04 05:05:42;;;;;;;13.60;4.70;;;13.70;87.90;;;;;;5015156;28;20198;-95
2022/11/04 05:08:10;;;;;;;11.17;4.20;;;13.70;88.40;;;;;;5014999;28;20203;-95
2022/11/04 05:10:37;;;;;;;9.10;3.43;;;13.70;88.30;;;;;;5015389;28;20211;-92
2022/11/04 05:15:50;;;;;;;13.93;3.90;;;13.70;88.50;;;;;;5017519;28;20340;-92
2022/11/04 05:18:20;;;;;;;10.87;3.70;;;13.70;88.30;;;;;;5015083;28;20238;-93
2022/11/04 05:20:51;;;;;;;9.10;3.57;;;13.70;88.60;;;;;;5008312;28;20227;-93
2022/11/04 05:23:20;;;;;;;12.53;4.37;;;13.80;88.80;;;;;;5014474;28;20213;-92
2022/11/04 05:25:50;;;;;;;12.87;4.50;;;13.70;88.30;;;;;;5015572;28;20301;-92
2022/11/04 05:28:23;;;;;;;15.07;4.77;;;13.70;88.40;;;;;;5013657;28;20203;-93
2022/11/04 05:30:54;;;;;;;14.43;4.73;;;13.70;88.70;;;;;;5013982;28;20202;-92
2022/11/04 05:33:23;;;;;;;12.73;4.73;;;13.70;88.70;;;;;;5011634;28;20227;-91
2022/11/04 05:35:52;;;;;;;11.40;4.23;;;13.70;88.70;;;;;;5011236;28;20205;-92
2022/11/04 05:38:21;;;;;;;17.47;5.37;;;13.70;88.90;;;;;;5016044;28;20281;-94
2022/11/04 05:40:50;;;;;;;11.83;4.17;;;13.80;89.00;;;;;;5017399;28;20235;-94
2022/11/04 05:43:20;;;;;;;16.50;5.30;;;13.80;88.90;;;;;;5017374;28;20209;-93
2022/11/04 05:45:50;;;;;;;12.80;3.97;;;13.70;88.40;;;;;;5032179;28;20197;-94
2022/11/04 05:48:23;;;;;;;9.37;3.93;;;13.80;88.70;;;;;;5022892;28;20205;-94
2022/11/04 05:50:56;;;;;;;12.80;4.57;;;13.80;89.00;;;;;;5020800;28;20214;-94
2022/11/04 05:53:35;;;;;;;12.40;4.27;;;13.80;89.10;;;;;;5019013;28;20258;-94
2022/11/04 05:56:03;;;;;;;12.03;4.57;;;13.80;89.40;;;;;;5014155;28;20229;-94
2022/11/04 05:58:36;;;;;;;10.70;3.83;;;13.80;89.00;;;;;;5018438;28;20262;-95
2022/11/04 06:01:24;;;;;;;8.90;3.77;;;13.80;89.30;;;;;;5014582;28;20219;-94
2022/11/04 06:03:55;;;;;;;10.67;4.07;;;13.80;89.60;;;;;;5019189;28;20222;-94
2022/11/04 06:06:38;;;;;;;8.30;3.73;;;13.80;89.20;;;;;;5019713;28;20214;-94
2022/11/04 06:09:06;;;;;;;8.30;3.77;;;13.80;89.30;;;;;;5019734;28;20216;-94
2022/11/04 06:11:35;;;;;;;8.53;3.97;;;13.80;89.30;;;;;;5018024;28;20671;-95
2022/11/04 06:14:09;;;;;;;7.77;3.40;;;13.80;89.60;;;;;;5017662;28;20223;-95
2022/11/04 06:16:36;;;;;;;9.50;4.40;;;13.80;90.00;;;;;;5000137;28;20771;-96
2022/11/04 06:19:06;;;;;;;10.10;4.47;;;13.80;89.60;;;;;;5015502;28;20228;-94
2022/11/04 06:21:42;;;;;;;7.33;3.23;;;13.80;89.80;;;;;;5019156;28;20218;-94
2022/11/04 06:24:11;;;;;;;15.00;4.90;;;13.80;89.90;;;;;;5020448;28;20235;-93
2022/11/04 06:26:39;;;;;;;9.97;4.57;;;13.80;89.60;;;;;;5019372;28;20238;-94
2022/11/04 06:29:08;;;;;;;14.63;6.43;;;13.80;89.20;;;;;;5018200;28;20461;-94
2022/11/04 06:31:36;;;;;;;19.33;7.57;;;13.80;89.30;;;;;;5003584;28;20231;-94
2022/11/04 06:34:07;;;;;;;7.97;4.67;;;13.80;89.40;;;;;;5020130;28;20286;-95
2022/11/04 06:36:41;;;;;;;12.00;5.30;;;13.80;89.80;;;;;;5019857;28;20272;-95
2022/11/04 06:39:09;;;;;;;13.93;5.50;;;13.80;89.60;;;;;;5005603;28;20198;-94
2022/11/04 06:41:43;;;;;;;12.57;5.00;;;13.80;89.50;;;;;;5019727;28;20204;-95
2022/11/04 06:44:14;;;;;;;9.43;4.57;;;13.80;90.00;;;;;;4999197;28;20229;-94
2022/11/04 06:46:43;;;;;;;13.00;5.70;;;13.80;89.60;;;;;;5021269;28;20205;-95
2022/11/04 06:49:23;;;;;;;14.17;6.23;;;13.80;89.80;;;;;;5031483;28;20212;-94
2022/11/04 06:51:52;;;;;;;11.53;4.23;;;13.80;90.00;;;;;;5017491;28;20205;-96
2022/11/04 06:54:22;;;;;;;10.10;4.67;;;13.80;89.80;;;;;;5014491;28;20331;-96
2022/11/04 06:56:53;;;;;;;14.23;5.43;;;13.80;90.00;;;;;;5010677;28;20209;-95
2022/11/04 06:59:22;;;;;;;11.63;5.37;;;13.80;90.10;;;;;;5012505;28;20197;-96
2022/11/04 07:01:51;;;;;;;12.63;5.67;;;13.80;90.00;;;;;;4993396;28;20202;-95
2022/11/04 07:04:22;;;;;;;15.13;5.40;;;13.80;90.00;;;;;;4999209;28;20966;-94
2022/11/04 07:06:51;;;;;;;13.83;4.27;;;13.80;90.10;;;;;;5007754;28;20731;-96
2022/11/04 07:09:20;;;;;;;11.13;4.47;;;13.80;90.00;;;;;;4994033;28;20213;-95
2022/11/04 07:11:51;;;;;;;15.03;4.73;;;13.80;90.10;;;;;;5002417;28;20203;-92
2022/11/04 07:14:18;;;;;;;19.80;6.37;;;13.80;90.00;;;;;;5005772;28;20237;-92
2022/11/04 07:16:45;;;;;;;14.83;5.53;;;13.80;89.90;;;;;;5010439;28;20217;-95
2022/11/04 07:19:14;;;;;;;22.13;7.33;;;13.80;90.00;;;;;;5010831;28;20316;-93
2022/11/04 07:21:48;;;;;;;13.63;5.33;;;13.80;90.10;;;;;;5012958;28;20242;-95
2022/11/04 07:24:18;;;;;;;13.80;5.50;;;13.80;90.20;;;;;;5010205;28;20255;-94
2022/11/04 07:26:45;;;;;;;14.53;5.60;;;13.80;90.20;;;;;;5011835;28;20206;-93
2022/11/04 07:29:12;;;;;;;19.73;6.50;;;13.80;90.20;;;;;;5006244;28;20210;-93
2022/11/04 07:31:39;;;;;;;19.63;7.53;;;13.80;90.20;;;;;;5001379;28;20890;-91
2022/11/04 07:34:07;;;;;;;14.60;5.67;;;13.80;90.30;;;;;;5004134;28;20263;-93
2022/11/04 07:36:34;;;;;;;20.23;6.83;;;13.80;90.40;;;;;;5005503;28;20232;-93
2022/11/04 07:39:01;;;;;;;17.33;7.00;;;13.80;90.40;;;;;;5008360;28;20236;-93
2022/11/04 07:41:30;;;;;;;20.03;7.90;;;13.80;90.40;;;;;;4996977;28;20292;-92
2022/11/04 07:43:57;;;;;;;10.77;5.50;;;13.80;90.70;;;;;;5008565;28;20217;-92
2022/11/04 07:46:24;;;;;;;17.90;6.57;;;13.80;90.80;;;;;;5004313;28;20205;-91
2022/11/04 07:48:53;;;;;;;18.43;6.67;;;13.80;90.50;;;;;;5008285;28;20752;-91
2022/11/04 07:51:22;;;;;;;15.47;7.00;;;13.80;90.70;;;;;;5001167;28;20202;-92
2022/11/04 07:53:49;;;;;;;17.90;8.00;;;13.80;90.70;;;;;;5003182;28;20271;-92
2022/11/04 07:56:17;;;;;;;14.17;6.90;;;13.80;90.70;;;;;;5003570;28;20746;-91
2022/11/04 07:58:46;;;;;;;22.23;8.00;;;13.80;90.70;;;;;;5005687;28;20216;-92
2022/11/04 08:01:16;;;;;;;18.67;6.53;;;13.80;90.80;;;;;;5015683;28;20248;-92
2022/11/04 08:03:43;;;;;;;16.13;6.97;;;13.80;90.70;;;;;;5025283;28;20568;-91
2022/11/04 08:06:12;;;;;;;14.63;6.77;;;13.80;90.70;;;;;;5009115;28;20249;-92
2022/11/04 08:08:41;;;;;;;18.97;7.70;;;13.90;90.90;;;;;;5006540;28;20258;-92
2022/11/04 08:11:10;;;;;;;13.20;6.47;;;13.90;91.00;;;;;;5012167;28;20725;-92
2022/11/04 08:13:42;;;;;;;13.90;5.70;;;13.90;91.10;;;;;;5008920;28;20207;-92
2022/11/04 08:16:14;;;;;;;13.43;6.57;;;13.90;91.20;;;;;;5011592;28;20207;-92
2022/11/04 08:18:42;;;;;;;14.50;6.00;;;13.90;91.20;;;;;;5011117;28;20234;-92
2022/11/04 08:21:19;;;;;;;12.37;5.70;;;13.90;91.20;;;;;;5008335;28;20296;-92
2022/11/04 08:23:46;;;;;;;14.57;6.27;;;14.00;91.40;;;;;;5005005;28;20234;-91
2022/11/04 08:26:17;;;;;;;26.63;9.03;;;14.00;91.20;;;;;;4996776;28;20246;-91
2022/11/04 08:28:44;;;;;;;14.43;5.73;;;14.00;91.20;;;;;;5008289;28;20236;-91
2022/11/04 08:31:17;;;;;;;14.43;7.57;;;14.00;91.30;;;;;;5009360;28;20246;-91
2022/11/04 08:33:44;;;;;;;18.13;7.77;;;14.00;91.50;;;;;;5010558;28;20288;-92
2022/11/04 08:36:14;;;;;;;19.50;7.43;;;14.10;91.40;;;;;;5010063;28;20189;-91
2022/11/04 08:38:42;;;;;;;17.97;7.27;;;14.10;91.40;;;;;;5009822;28;20628;-92
2022/11/04 08:41:10;;;;;;;19.53;8.03;;;14.10;91.20;;;;;;5007947;28;20217;-90
2022/11/04 08:43:37;;;;;;;21.53;7.90;;;14.10;91.30;;;;;;5005700;28;20302;-91
2022/11/04 08:46:07;;;;;;;25.23;9.30;;;14.20;91.20;;;;;;4996648;28;20240;-90
2022/11/04 08:48:37;;;;;;;25.20;9.10;;;14.20;91.20;;;;;;4995360;28;20251;-91
2022/11/04 08:51:06;;;;;;;14.50;6.17;;;14.20;91.70;;;;;;5006842;28;20297;-90
2022/11/04 08:53:33;;;;;;;17.10;6.77;;;14.30;91.40;;;;;;5009932;28;20235;-90
2022/11/04 08:56:00;;;;;;;18.33;6.93;;;14.20;91.30;;;;;;5007278;28;20205;-90
2022/11/04 08:58:27;;;;;;;22.70;7.80;;;14.30;91.30;;;;;;5008541;28;20269;-90
2022/11/04 09:00:54;;;;;;;18.10;7.07;;;14.40;91.30;;;;;;5007898;28;20217;-90
2022/11/04 09:03:21;;;;;;;12.63;5.90;;;14.40;91.30;;;;;;5008330;28;20734;-90
2022/11/04 09:05:50;;;;;;;14.57;6.00;;;14.40;91.20;;;;;;5008442;28;20294;-90
2022/11/04 09:08:18;;;;;;;15.83;5.90;;;14.40;91.20;;;;;;5009429;28;20266;-90
2022/11/04 09:10:47;;;;;;;13.30;6.13;;;14.40;91.00;;;;;;5007042;28;20262;-89
2022/11/04 09:13:15;;;;;;;18.23;7.17;;;14.50;91.20;;;;;;5009417;28;20219;-91
2022/11/04 09:15:43;;;;;;;15.83;6.90;;;14.50;90.90;;;;;;5007359;28;20202;-90
2022/11/04 09:18:10;;;;;;;19.83;7.23;;;14.50;90.80;;;;;;5005243;28;20211;-90
2022/11/04 09:20:38;;;;;;;12.93;5.83;;;14.50;90.70;;;;;;5008487;28;20300;-90
2022/11/04 09:23:08;;;;;;;15.33;5.40;;;14.50;90.50;;;;;;5012082;28;20200;-91
2022/11/04 09:25:35;;;;;;;17.27;6.53;;;14.60;90.60;;;;;;5012495;28;20298;-91
2022/11/04 09:28:03;;;;;;;16.47;6.60;;;14.60;90.50;;;;;;5012799;28;20323;-91
2022/11/04 09:30:30;;;;;;;17.53;6.13;;;14.60;90.60;;;;;;5013664;28;20232;-92
2022/11/04 09:32:58;;;;;;;14.17;5.93;;;14.60;90.70;;;;;;5005345;28;20262;-91
2022/11/04 09:35:27;;;;;;;15.10;6.63;;;14.60;90.60;;;;;;5013755;28;20219;-90
2022/11/04 09:37:55;;;;;;;18.17;5.77;;;14.60;90.80;;;;;;5015702;28;20203;-91
2022/11/04 09:40:25;;;;;;;12.50;5.07;;;14.70;90.70;;;;;;5012669;28;20226;-95
2022/11/04 09:43:04;;;;;;;22.23;8.30;;;14.70;90.90;;;;;;5015479;28;20232;-90
2022/11/04 09:45:33;;;;;;;14.43;5.70;;;14.70;91.00;;;;;;5011957;28;20543;-90
2022/11/04 09:48:05;;;;;;;13.73;5.23;;;14.70;91.00;;;;;;5010848;28;20299;-92
2022/11/04 09:50:44;;;;;;;11.20;4.70;;;14.70;91.00;;;;;;5012155;28;20287;-91
2022/11/04 09:53:17;;;;;;;23.13;9.00;;;14.80;91.00;;;;;;5006275;28;20254;-91
2022/11/04 09:55:55;;;;;;;18.50;7.63;;;14.80;91.10;;;;;;5008588;28;20406;-89
2022/11/04 09:58:24;;;;;;;16.20;8.13;;;14.80;91.20;;;;;;5010111;28;20236;-92
2022/11/04 10:00:57;;;;;;;16.83;7.60;;;14.80;91.10;;;;;;5012887;28;20202;-91
2022/11/04 10:03:49;;;;;;;15.30;7.03;;;14.90;91.20;;;;;;5012775;28;20215;-93
2022/11/04 10:06:33;;;;;;;11.77;5.63;;;14.90;91.10;;;;;;5017493;28;20274;-91
2022/11/04 10:09:16;;;;;;;16.17;6.30;;;15.00;91.00;;;;;;5018575;28;20293;-89
2022/11/04 10:11:53;;;;;;;10.83;5.10;;;15.00;90.90;;;;;;5012192;28;20242;-91
2022/11/04 10:14:49;;;;;;;11.50;5.90;;;15.00;90.80;;;;;;5003208;28;20198;-95
2022/11/04 10:17:35;;;;;;;12.03;5.57;;;15.10;90.90;;;;;;5002144;28;20301;-91
2022/11/04 10:20:18;;;;;;;15.43;6.33;;;15.10;91.00;;;;;;5019717;28;20217;-93
2022/11/04 10:22:55;;;;;;;12.23;5.23;;;15.10;91.30;;;;;;5018822;28;20235;-89
2022/11/04 10:25:25;;;;;;;14.17;6.43;;;15.10;91.60;;;;;;4999063;28;20728;-90
2022/11/04 10:27:55;;;;;;;15.77;6.00;;;15.10;91.30;;;;;;4988893;28;20304;-90
2022/11/04 10:30:23;;;;;;;13.27;5.57;;;15.10;91.40;;;;;;5001563;28;20294;-90
2022/11/04 10:33:00;;;;;;;13.70;5.40;;;15.20;91.20;;;;;;5007059;28;20646;-90
2022/11/04 10:35:33;;;;;;;14.83;5.80;;;15.20;91.30;;;;;;5004558;28;20259;-90
2022/11/04 10:38:16;;;;;;;10.60;4.77;;;15.20;91.20;;;;;;4988593;28;20217;-89
2022/11/04 10:40:46;;;;;;;12.77;4.97;;;15.30;91.30;;;;;;5004829;28;20670;-90
2022/11/04 10:43:19;;;;;;;14.50;5.07;;;15.30;90.60;;;;;;5007088;28;20300;-91
2022/11/04 10:45:57;;;;;;;12.43;5.23;;;15.40;90.60;;;;;;5006155;28;20264;-89
2022/11/04 10:48:30;;;;;;;12.23;4.70;;;15.40;90.80;;;;;;5007205;28;20300;-89
2022/11/04 10:50:58;;;;;;;12.53;5.03;;;15.40;90.80;;;;;;5007291;28;20198;-89
2022/11/04 10:53:27;;;;;;;10.80;4.60;;;15.50;90.90;;;;;;5007755;28;20271;-91
2022/11/04 10:56:02;;;;;;;19.53;6.70;;;15.50;91.00;;;;;;5004688;28;20782;-89
2022/11/04 10:58:34;;;;;;;18.40;6.33;;;15.60;91.20;;;;;;5004931;28;20318;-89
2022/11/04 11:01:25;;;;;;;9.73;4.30;;;15.60;91.40;;;;;;5006489;28;20333;-89
2022/11/04 11:03:55;;;;;;;16.33;5.73;;;15.70;91.10;;;;;;5006648;28;20240;-90
2022/11/04 11:06:28;;;;;;;11.03;4.43;;;15.70;91.30;;;;;;5006906;28;20596;-90
2022/11/04 11:08:58;;;;;;;17.53;6.50;;;15.80;91.70;;;;;;5008019;28;20247;-90
2022/11/04 11:11:46;;;;;;;11.23;4.80;;;15.80;91.30;;;;;;5007188;28;20218;-89
2022/11/04 11:14:18;;;;;;;11.67;4.17;;;15.90;91.20;;;;;;5006053;28;20220;-90
2022/11/04 11:16:47;;;;;;;11.87;4.37;;;16.00;90.80;;;;;;5006786;28;20209;-90
2022/11/04 11:19:17;;;;;;;12.57;5.47;;;16.10;90.50;;;;;;5005222;28;20209;-89
2022/11/04 11:21:47;;;;;;;9.63;3.33;;;16.20;91.00;;;;;;5006756;28;20300;-90
2022/11/04 11:24:19;;;;;;;9.87;3.63;;;16.30;91.00;;;;;;5006770;28;20210;-90
2022/11/04 11:26:48;;;;;;;13.73;4.33;;;16.40;91.20;;;;;;5005866;28;20230;-90
2022/11/04 11:29:24;;;;;;;10.10;3.43;;;16.60;90.90;;;;;;5006662;28;20692;-90
2022/11/04 11:31:58;;;;;;;9.40;3.33;;;16.70;90.20;;;;;;4998186;28;20684;-92
2022/11/04 11:34:30;;;;;;;8.80;2.97;;;16.90;87.40;;;;;;4995173;28;20207;-91
2022/11/04 11:36:58;;;;;;;16.67;5.40;;;17.00;87.10;;;;;;5008761;28;20199;-91
2022/11/04 11:39:28;;;;;;;10.47;3.73;;;17.20;88.10;;;;;;5009544;28;20298;-90
2022/11/04 11:41:58;;;;;;;8.17;2.70;;;17.40;86.60;;;;;;5010219;28;20224;-91
2022/11/04 11:44:33;;;;;;;9.47;3.03;;;17.60;87.30;;;;;;5008045;28;20299;-90
2022/11/04 11:47:04;;;;;;;8.80;3.10;;;17.80;83.60;;;;;;5010095;28;20242;-90
2022/11/04 11:49:34;;;;;;;10.30;3.53;;;18.00;83.70;;;;;;5008975;28;20197;-91
2022/11/04 11:52:27;;;;;;;8.37;2.90;;;18.20;82.80;;;;;;5010472;28;20273;-91
2022/11/04 11:55:01;;;;;;;7.77;2.97;;;18.40;83.00;;;;;;4997797;28;20648;-90
2022/11/04 11:57:35;;;;;;;10.20;3.23;;;18.60;82.40;;;;;;5010955;28;20284;-90
2022/11/04 12:00:08;;;;;;;8.40;2.73;;;18.80;79.90;;;;;;5014736;28;20209;-91
2022/11/04 12:02:43;;;;;;;9.67;3.17;;;18.90;77.30;;;;;;5013123;28;20335;-92
2022/11/04 12:05:13;;;;;;;7.57;2.47;;;19.10;76.80;;;;;;5010722;28;20335;-90
2022/11/04 12:07:47;;;;;;;14.60;4.83;;;19.20;76.50;;;;;;5011506;28;20291;-91
2022/11/04 12:10:24;;;;;;;8.47;2.80;;;19.30;76.30;;;;;;5011851;28;20213;-92
2022/11/04 12:13:06;;;;;;;7.97;2.90;;;19.40;73.40;;;;;;5008328;28;20206;-91
2022/11/04 12:15:48;;;;;;;9.00;3.17;;;19.40;73.40;;;;;;5011043;28;20617;-90
2022/11/04 12:19:03;;;;;;;11.20;3.57;;;19.50;70.90;;;;;;4995366;28;20701;-90
2022/11/04 12:21:34;;;;;;;8.57;3.20;;;19.40;70.20;;;;;;4930449;29;20216;-90
2022/11/04 12:24:20;;;;;;;11.03;3.27;;;19.50;70.90;;;;;;5004238;28;20313;-90
2022/11/04 12:26:53;;;;;;;7.37;2.83;;;19.50;70.90;;;;;;5009473;28;20229;-92
2022/11/04 12:29:39;;;;;;;7.27;2.63;;;19.50;69.70;;;;;;5006212;28;20337;-91
2022/11/04 12:32:19;;;;;;;6.13;2.37;;;19.40;68.70;;;;;;5007429;28;20225;-92
2022/11/04 12:34:59;;;;;;;7.63;2.90;;;19.30;68.40;;;;;;5025903;28;20197;-92
2022/11/04 12:37:38;;;;;;;8.40;2.23;;;19.30;68.80;;;;;;5019426;28;20243;-91
2022/11/04 12:40:15;;;;;;;7.93;2.87;;;19.20;69.00;;;;;;5012337;28;20248;-92
2022/11/04 12:42:57;;;;;;;8.90;2.67;;;19.20;68.80;;;;;;5009498;28;20232;-92
2022/11/04 12:45:44;;;;;;;8.20;3.10;;;19.10;68.10;;;;;;5008436;28;20805;-91
2022/11/04 12:48:31;;;;;;;8.23;2.80;;;19.10;68.10;;;;;;5010441;28;20212;-92
2022/11/04 12:51:11;;;;;;;7.63;2.80;;;19.00;67.40;;;;;;5010211;28;20238;-90
2022/11/04 12:53:57;;;;;;;16.27;4.23;;;19.00;68.20;;;;;;5011761;28;20204;-90
2022/11/04 12:56:40;;;;;;;11.70;3.07;;;18.90;67.60;;;;;;5015111;28;20243;-92
2022/11/04 12:59:41;;;;;;;6.40;2.10;;;18.80;68.00;;;;;;5014849;28;20201;-92
2022/11/04 13:02:20;;;;;;;5.07;2.17;;;18.80;68.20;;;;;;5001928;28;20246;-93
2022/11/04 13:04:58;;;;;;;11.50;3.43;;;18.80;70.30;;;;;;5022178;28;20205;-91
2022/11/04 13:07:43;;;;;;;10.47;3.53;;;18.80;69.60;;;;;;5012260;28;20236;-91
2022/11/04 13:10:19;;;;;;;8.50;3.00;;;18.80;68.30;;;;;;5004901;28;20581;-91
2022/11/04 13:12:49;;;;;;;10.77;3.97;;;18.70;68.90;;;;;;5008343;28;20323;-92
2022/11/04 13:15:21;;;;;;;9.33;3.20;;;18.70;69.30;;;;;;5010670;28;20571;-92
2022/11/04 13:17:52;;;;;;;9.83;2.73;;;18.70;70.00;;;;;;5010086;28;20223;-90
2022/11/04 13:20:27;;;;;;;8.03;2.67;;;18.70;69.80;;;;;;5010112;28;20270;-91
2022/11/04 13:23:02;;;;;;;7.77;2.97;;;18.70;69.40;;;;;;4993489;28;20712;-90
2022/11/04 13:25:33;;;;;;;10.60;3.67;;;18.60;68.80;;;;;;5008966;28;20260;-90
2022/11/04 13:28:02;;;;;;;11.63;3.03;;;18.60;69.80;;;;;;5008933;28;20383;-91
2022/11/04 13:30:37;;;;;;;10.70;3.37;;;18.50;69.70;;;;;;5009073;28;20602;-90
2022/11/04 13:33:15;;;;;;;8.77;3.37;;;18.50;69.70;;;;;;5010354;28;20306;-90
2022/11/04 13:35:50;;;;;;;10.30;3.30;;;18.40;69.40;;;;;;5007371;28;20212;-90
2022/11/04 13:38:22;;;;;;;9.53;2.93;;;18.30;69.30;;;;;;5008592;28;20310;-90
2022/11/04 13:41:00;;;;;;;14.70;4.30;;;18.30;69.80;;;;;;5007335;28;20229;-90